createdAt,value
2023-05-03T00:01:00.243Z,43.75
2023-05-03T00:03:06.854Z,38.35
2023-05-03T00:05:12.983Z,35.63
2023-05-03T00:07:14.765Z,38.47
2023-05-03T00:09:16.135Z,45.00
2023-05-03T00:11:17.561Z,37.60
2023-05-03T00:13:18.971Z,41.05
2023-05-03T00:15:20.593Z,41.25
2023-05-03T00:17:22.198Z,38.95
2023-05-03T00:19:31.460Z,44.83
2023-05-03T00:21:33.340Z,44.50
2023-05-03T00:23:34.743Z,42.67
2023-05-03T00:25:36.172Z,40.17
2023-05-03T00:27:38.301Z,44.70
2023-05-03T00:29:39.697Z,47.40
2023-05-03T00:31:43.278Z,45.28
2023-05-03T00:33:44.753Z,47.03
2023-05-03T00:35:46.216Z,52.15
2023-05-03T00:37:47.608Z,49.58
2023-05-03T00:39:49.101Z,54.72
2023-05-03T00:41:50.595Z,51.17
2023-05-03T00:43:52.135Z,45.25
2023-05-03T00:45:57.243Z,51.05
2023-05-03T00:48:06.478Z,49.38
2023-05-03T00:50:08.270Z,53.38
2023-05-03T00:52:09.764Z,50.35
2023-05-03T00:54:11.439Z,50.92
2023-05-03T00:56:15.196Z,52.65
2023-05-03T00:58:16.968Z,54.67
2023-05-03T01:00:19.276Z,55.45
2023-05-03T01:02:21.772Z,59.03
2023-05-03T01:04:23.574Z,62.72
2023-05-03T01:06:43.560Z,58.63
2023-05-03T01:08:49.344Z,60.00
2023-05-03T01:10:57.932Z,59.70
2023-05-03T01:13:18.145Z,59.53
2023-05-03T01:15:25.747Z,58.35
2023-05-03T01:17:32.523Z,61.17
2023-05-03T01:19:41.094Z,62.38
2023-05-03T01:21:42.899Z,58.20
2023-05-03T01:24:03.407Z,63.15
2023-05-03T01:26:23.992Z,65.25
2023-05-03T01:28:25.725Z,69.53
2023-05-03T01:30:28.203Z,58.88
2023-05-03T01:32:36.421Z,64.97
2023-05-03T01:34:40.648Z,69.40
2023-05-03T01:36:44.167Z,67.97
2023-05-03T01:38:45.975Z,72.38
2023-05-03T01:40:49.464Z,71.43
2023-05-03T01:42:51.333Z,71.43
2023-05-03T01:44:53.733Z,75.97
2023-05-03T01:46:57.014Z,77.30
2023-05-03T01:48:58.436Z,81.88
2023-05-03T01:51:00.299Z,77.63
2023-05-03T01:53:01.935Z,76.28
2023-05-03T01:55:03.461Z,74.85
2023-05-03T01:57:05.611Z,78.75
2023-05-03T01:59:07.147Z,78.63
2023-05-03T02:01:08.661Z,78.60
2023-05-03T02:03:10.202Z,80.20
2023-05-03T02:05:12.061Z,88.88
2023-05-03T02:07:13.470Z,83.68
2023-05-03T02:09:15.431Z,81.13
2023-05-03T02:11:16.806Z,85.65
2023-05-03T02:13:18.186Z,79.47
2023-05-03T02:15:22.517Z,84.35
2023-05-03T02:17:26.637Z,83.30
2023-05-03T02:19:28.086Z,78.93
2023-05-03T02:21:29.484Z,80.32
2023-05-03T02:23:30.902Z,82.43
2023-05-03T02:25:32.349Z,77.82
2023-05-03T02:27:33.759Z,80.20
2023-05-03T02:29:35.509Z,84.03
2023-05-03T02:31:36.972Z,83.05
2023-05-03T02:33:38.374Z,80.78
2023-05-03T02:35:39.769Z,79.28
2023-05-03T02:37:41.224Z,75.60
2023-05-03T02:39:42.672Z,79.68
2023-05-03T02:41:44.255Z,76.80
2023-05-03T02:43:45.750Z,70.70
2023-05-03T02:45:47.301Z,77.95
2023-05-03T02:47:48.718Z,74.50
2023-05-03T02:49:50.168Z,69.25
2023-05-03T02:51:53.051Z,77.47
2023-05-03T02:53:54.812Z,75.55
2023-05-03T02:55:56.198Z,76.53
2023-05-03T02:57:57.641Z,75.65
2023-05-03T02:59:59.082Z,83.40
2023-05-03T03:02:00.560Z,82.13
2023-05-03T03:04:02.162Z,81.75
2023-05-03T03:06:03.693Z,81.90
2023-05-03T03:08:05.670Z,82.07
2023-05-03T03:10:07.851Z,88.20
2023-05-03T03:12:09.239Z,85.95
2023-05-03T03:14:10.656Z,86.40
2023-05-03T03:16:13.543Z,91.30
2023-05-03T03:18:16.088Z,82.28
2023-05-03T03:20:18.628Z,98.38
2023-05-03T03:22:20.046Z,96.60
2023-05-03T03:24:21.735Z,92.63
2023-05-03T03:26:23.284Z,91.30
2023-05-03T03:28:24.754Z,90.50
2023-05-03T03:30:26.233Z,97.88
2023-05-03T03:32:27.678Z,100.97
2023-05-03T03:34:29.180Z,100.03
2023-05-03T03:36:31.502Z,111.75
2023-05-03T03:38:33.024Z,108.60
2023-05-03T03:40:34.523Z,105.65
2023-05-03T03:42:36.064Z,93.68
2023-05-03T03:44:37.571Z,90.82
2023-05-03T03:46:39.035Z,102.00
2023-05-03T03:48:40.524Z,103.50
2023-05-03T03:50:42.019Z,96.40
2023-05-03T03:52:43.439Z,105.05
2023-05-03T03:54:44.953Z,102.60
2023-05-03T03:56:46.453Z,105.15
2023-05-03T03:58:48.590Z,105.18
2023-05-03T04:00:50.576Z,101.25
2023-05-03T04:02:52.062Z,98.75
2023-05-03T04:04:53.513Z,98.45
2023-05-03T04:06:54.969Z,106.00
2023-05-03T04:08:56.418Z,108.03
2023-05-03T04:10:57.924Z,99.88
2023-05-03T04:12:59.382Z,94.90
2023-05-03T04:15:00.844Z,89.95
2023-05-03T04:17:02.381Z,76.03
2023-05-03T04:19:04.163Z,68.20
2023-05-03T04:21:05.907Z,49.13
2023-05-03T04:23:07.451Z,37.60
2023-05-03T04:25:11.501Z,38.42
2023-05-03T04:27:14.970Z,36.05
2023-05-03T04:29:16.898Z,33.53
2023-05-03T04:31:19.958Z,37.25
2023-05-03T04:33:22.101Z,32.22
2023-05-03T04:35:23.518Z,32.22
2023-05-03T04:37:24.978Z,33.03
2023-05-03T04:39:26.493Z,28.15
2023-05-03T04:41:28.007Z,27.08
2023-05-03T04:43:29.415Z,24.88
2023-05-03T04:45:31.286Z,23.20
2023-05-03T04:47:33.065Z,19.48
2023-05-03T04:49:34.862Z,25.73
2023-05-03T04:51:36.286Z,20.38
2023-05-03T04:53:37.886Z,22.55
2023-05-03T04:55:39.352Z,19.38
2023-05-03T04:57:40.755Z,19.27
2023-05-03T04:59:42.469Z,17.33
2023-05-03T05:01:43.882Z,19.92
2023-05-03T05:03:45.561Z,21.33
2023-05-03T05:05:47.049Z,15.32
2023-05-03T05:07:48.465Z,18.80
2023-05-03T05:09:49.885Z,13.30
2023-05-03T05:11:51.867Z,16.35
2023-05-03T05:13:53.286Z,11.90
2023-05-03T05:15:55.789Z,13.45
2023-05-03T05:17:57.349Z,14.32
2023-05-03T05:19:58.914Z,14.45
2023-05-03T05:22:00.351Z,13.68
2023-05-03T05:24:02.043Z,14.00
2023-05-03T05:26:04.653Z,13.32
2023-05-03T05:28:06.053Z,14.45
2023-05-03T05:30:07.883Z,11.30
2023-05-03T05:32:09.367Z,13.80
2023-05-03T05:34:10.945Z,11.63
2023-05-03T05:36:12.375Z,12.05
2023-05-03T05:38:13.890Z,13.88
2023-05-03T05:40:15.523Z,10.20
2023-05-03T05:42:17.242Z,10.57
2023-05-03T05:44:18.701Z,13.65
2023-05-03T05:46:23.285Z,13.18
2023-05-03T05:48:24.791Z,12.80
2023-05-03T05:50:26.565Z,11.10
2023-05-03T05:52:27.948Z,12.85
2023-05-03T05:54:30.500Z,17.52
2023-05-03T05:56:32.078Z,12.32
2023-05-03T05:58:33.578Z,17.85
2023-05-03T06:00:35.211Z,18.52
2023-05-03T06:02:36.801Z,12.23
2023-05-03T06:04:38.385Z,13.98
2023-05-03T06:06:39.989Z,9.52
2023-05-03T06:08:41.505Z,12.07
2023-05-03T06:10:42.958Z,13.25
2023-05-03T06:12:44.374Z,10.63
2023-05-03T06:14:59.049Z,9.90
2023-05-03T06:17:02.787Z,10.40
2023-05-03T06:19:05.119Z,16.67
2023-05-03T06:21:06.571Z,12.52
2023-05-03T06:23:08.113Z,10.50
2023-05-03T06:25:10.536Z,13.50
2023-05-03T06:27:12.096Z,13.32
2023-05-03T06:29:13.505Z,14.77
2023-05-03T06:31:15.006Z,13.18
2023-05-03T06:33:16.520Z,9.73
2023-05-03T06:35:19.798Z,10.68
2023-05-03T06:37:21.319Z,11.80
2023-05-03T06:39:22.803Z,14.45
2023-05-03T06:41:24.441Z,11.50
2023-05-03T06:43:26.169Z,10.55
2023-05-03T06:45:27.873Z,8.68
2023-05-03T06:47:29.311Z,10.25
2023-05-03T06:49:30.683Z,11.13
2023-05-03T06:51:33.175Z,11.25
2023-05-03T06:53:34.684Z,11.65
2023-05-03T06:55:36.134Z,8.52
2023-05-03T06:57:37.603Z,9.90
2023-05-03T06:59:39.044Z,12.07
2023-05-03T07:01:40.577Z,11.10
2023-05-03T07:03:42.225Z,11.25
2023-05-03T07:05:43.947Z,10.90
2023-05-03T07:07:46.245Z,9.23
2023-05-03T07:09:47.665Z,17.67
2023-05-03T07:11:50.470Z,11.07
2023-05-03T07:13:52.571Z,10.70
2023-05-03T07:15:54.072Z,11.95
2023-05-03T07:17:55.492Z,9.80
2023-05-03T07:19:57.091Z,13.73
2023-05-03T07:21:58.531Z,13.48
2023-05-03T07:24:02.566Z,10.82
2023-05-03T07:26:04.046Z,10.60
2023-05-03T07:28:05.472Z,11.13
2023-05-03T07:30:08.118Z,14.52
2023-05-03T07:32:09.746Z,11.60
2023-05-03T07:34:11.483Z,11.40
2023-05-03T07:36:12.887Z,11.70
2023-05-03T07:38:14.350Z,9.90
2023-05-03T07:40:15.944Z,13.55
2023-05-03T07:42:17.456Z,9.70
2023-05-03T07:44:19.108Z,12.48
2023-05-03T07:46:20.789Z,9.60
2023-05-03T07:48:22.251Z,11.10
2023-05-03T07:50:23.714Z,11.35
2023-05-03T07:52:25.147Z,13.60
2023-05-03T07:54:26.818Z,10.32
2023-05-03T07:56:28.698Z,11.57
2023-05-03T07:58:39.996Z,14.20
2023-05-03T08:00:42.727Z,15.45
2023-05-03T08:02:44.363Z,11.45
2023-05-03T08:04:46.068Z,13.48
2023-05-03T08:06:48.007Z,11.02
2023-05-03T08:08:49.577Z,14.68
2023-05-03T08:10:52.565Z,14.20
2023-05-03T08:12:53.998Z,10.88
2023-05-03T08:14:56.108Z,13.65
2023-05-03T08:16:57.892Z,11.82
2023-05-03T08:18:59.324Z,13.15
2023-05-03T08:21:00.960Z,9.18
2023-05-03T08:23:02.636Z,15.60
2023-05-03T08:25:04.884Z,9.10
2023-05-03T08:27:08.800Z,12.70
2023-05-03T08:29:10.364Z,14.20
2023-05-03T08:31:12.126Z,10.68
2023-05-03T08:33:13.725Z,8.98
2023-05-03T08:35:15.759Z,11.05
2023-05-03T08:37:17.382Z,8.48
2023-05-03T08:39:19.200Z,12.40
2023-05-03T08:41:31.135Z,9.20
2023-05-03T08:43:36.635Z,11.35
2023-05-03T08:45:38.066Z,12.60
2023-05-03T08:47:41.646Z,14.10
2023-05-03T08:49:43.936Z,11.38
2023-05-03T08:51:49.637Z,18.75
2023-05-03T08:53:51.210Z,15.65
2023-05-03T08:55:53.667Z,12.35
2023-05-03T08:57:55.639Z,12.15
2023-05-03T09:00:00.767Z,13.75
2023-05-03T09:02:03.238Z,11.95
2023-05-03T09:04:05.025Z,13.05
2023-05-03T09:06:19.251Z,11.70
2023-05-03T09:08:22.801Z,13.05
2023-05-03T09:10:24.665Z,10.77
2023-05-03T09:12:36.630Z,12.30
2023-05-03T09:14:45.592Z,12.50
2023-05-03T09:16:47.581Z,10.93
2023-05-03T09:18:58.884Z,11.07
2023-05-03T09:21:00.340Z,16.77
2023-05-03T09:23:01.909Z,14.60
2023-05-03T09:25:04.215Z,16.20
2023-05-03T09:27:18.169Z,14.40
2023-05-03T09:29:36.178Z,14.43
2023-05-03T09:31:38.067Z,15.15
2023-05-03T09:33:39.903Z,12.35
2023-05-03T09:36:00.038Z,13.60
2023-05-03T09:38:01.986Z,12.75
2023-05-03T09:40:11.671Z,13.23
2023-05-03T09:42:17.013Z,11.82
2023-05-03T09:44:18.460Z,15.52
2023-05-03T09:46:20.627Z,15.73
2023-05-03T09:48:26.064Z,9.20
2023-05-03T09:50:28.027Z,6.38
2023-05-03T09:52:30.569Z,11.25
2023-05-03T09:54:32.164Z,6.78
2023-05-03T09:56:33.692Z,11.18
2023-05-03T09:58:35.914Z,14.32
2023-05-03T10:00:38.542Z,9.80
2023-05-03T10:02:41.610Z,7.65
2023-05-03T10:04:51.885Z,11.93
2023-05-03T10:06:56.847Z,10.27
2023-05-03T10:08:58.356Z,10.02
2023-05-03T10:11:00.600Z,9.15
2023-05-03T10:13:03.500Z,11.40
2023-05-03T10:15:07.317Z,6.32
2023-05-03T10:17:12.025Z,14.50
2023-05-03T10:19:14.759Z,12.80
2023-05-03T10:21:21.867Z,10.70
2023-05-03T10:23:23.344Z,8.45
2023-05-03T10:25:24.912Z,8.65
2023-05-03T10:27:37.510Z,7.18
2023-05-03T10:29:49.068Z,7.45
2023-05-03T10:31:51.090Z,10.45
2023-05-03T10:33:52.606Z,8.25
2023-05-03T10:35:54.540Z,15.20
2023-05-03T10:37:59.387Z,11.85
2023-05-03T10:40:27.418Z,6.78
2023-05-03T10:42:30.982Z,14.45
2023-05-03T10:44:38.353Z,10.30
2023-05-03T10:46:39.777Z,12.32
2023-05-03T10:48:41.640Z,9.52
2023-05-03T10:50:43.133Z,14.93
2023-05-03T10:52:44.539Z,14.00
2023-05-03T10:54:46.332Z,9.55
2023-05-03T10:56:48.635Z,11.65
2023-05-03T10:58:50.866Z,11.93
2023-05-03T11:00:52.541Z,18.35
2023-05-03T11:02:57.085Z,9.77
2023-05-03T11:05:01.838Z,13.07
2023-05-03T11:07:04.632Z,10.40
2023-05-03T11:09:06.915Z,17.25
2023-05-03T11:11:10.007Z,8.10
2023-05-03T11:13:12.121Z,12.40
2023-05-03T11:15:13.773Z,13.27
2023-05-03T11:17:15.326Z,14.77
2023-05-03T11:19:17.157Z,11.23
2023-05-03T11:21:18.969Z,15.43
2023-05-03T11:23:24.821Z,9.48
2023-05-03T11:25:27.071Z,13.80
2023-05-03T11:27:28.651Z,6.72
2023-05-03T11:29:30.137Z,11.38
2023-05-03T11:31:31.979Z,8.70
2023-05-03T11:33:35.217Z,8.80
2023-05-03T11:35:37.632Z,7.07
2023-05-03T11:37:39.011Z,8.93
2023-05-03T11:39:41.731Z,12.05
2023-05-03T11:41:43.258Z,7.72
2023-05-03T11:43:45.567Z,9.55
2023-05-03T11:45:48.322Z,13.25
2023-05-03T11:47:49.918Z,14.00
2023-05-03T11:49:55.407Z,13.60
2023-05-03T11:51:57.055Z,17.23
2023-05-03T11:54:02.863Z,9.98
2023-05-03T11:56:09.970Z,9.90
2023-05-03T11:58:18.122Z,13.63
2023-05-03T12:00:24.052Z,12.52
2023-05-03T12:02:27.410Z,11.13
2023-05-03T12:04:29.150Z,11.50
2023-05-03T12:06:36.077Z,11.88
2023-05-03T12:08:41.072Z,10.60
2023-05-03T12:10:45.505Z,9.68
2023-05-03T12:12:57.592Z,8.80
2023-05-03T12:15:03.480Z,11.25
2023-05-03T12:17:07.470Z,10.95
2023-05-03T12:19:09.704Z,14.25
2023-05-03T12:23:16.993Z,15.98
2023-05-03T12:25:20.377Z,8.68
2023-05-03T12:27:23.866Z,11.27
2023-05-03T12:29:26.863Z,9.85
2023-05-03T12:31:33.471Z,7.78
2023-05-03T12:33:38.563Z,9.82
2023-05-03T12:35:41.342Z,9.90
2023-05-03T12:37:43.736Z,7.38
2023-05-03T12:39:50.033Z,8.63
2023-05-03T12:44:02.833Z,10.38
2023-05-03T12:48:09.349Z,6.75
2023-05-03T12:50:12.651Z,6.25
2023-05-03T12:54:19.185Z,8.10
2023-05-03T12:56:24.573Z,6.13
2023-05-03T13:00:39.116Z,7.53
2023-05-03T13:04:58.887Z,6.32
2023-05-03T13:07:01.693Z,8.15
2023-05-03T13:09:03.888Z,8.15
2023-05-03T13:11:05.631Z,6.53
2023-05-03T13:13:07.321Z,4.97
2023-05-03T13:15:09.139Z,6.88
2023-05-03T13:17:12.010Z,9.55
2023-05-03T13:19:13.574Z,8.20
2023-05-03T13:21:15.409Z,9.18
2023-05-03T13:23:16.850Z,8.02
2023-05-03T13:25:18.273Z,8.85
2023-05-03T13:27:19.669Z,9.52
2023-05-03T13:29:22.207Z,5.18
2023-05-03T13:31:24.488Z,6.90
2023-05-03T13:33:26.334Z,8.55
2023-05-03T13:35:27.814Z,6.22
2023-05-03T13:37:29.227Z,6.93
2023-05-03T13:39:30.832Z,4.35
2023-05-03T13:41:32.582Z,9.50
2023-05-03T13:43:34.777Z,6.65
2023-05-03T13:45:36.283Z,9.48
2023-05-03T13:49:42.032Z,6.30
2023-05-03T13:51:43.584Z,4.70
2023-05-03T13:53:45.141Z,7.03
2023-05-03T13:55:46.623Z,5.45
2023-05-03T13:57:48.094Z,6.57
2023-05-03T13:59:51.011Z,3.50
2023-05-03T14:01:52.594Z,3.95
2023-05-03T14:03:54.731Z,6.68
2023-05-03T14:05:56.223Z,6.18
2023-05-03T14:07:58.248Z,4.68
2023-05-03T14:09:59.644Z,5.63
2023-05-03T14:12:01.211Z,4.72
2023-05-03T14:14:03.371Z,5.85
2023-05-03T14:16:05.194Z,5.80
2023-05-03T14:18:08.058Z,5.90
2023-05-03T14:20:12.689Z,5.18
2023-05-03T14:22:14.152Z,5.63
2023-05-03T14:24:15.995Z,6.18
2023-05-03T14:26:17.944Z,5.78
2023-05-03T14:28:19.543Z,6.50
2023-05-03T14:30:21.482Z,5.78
2023-05-03T14:32:24.421Z,4.93
2023-05-03T14:34:26.134Z,4.85
2023-05-03T14:36:34.947Z,6.68
2023-05-03T14:38:37.238Z,5.30
2023-05-03T14:40:38.768Z,7.57
2023-05-03T14:42:40.842Z,6.72
2023-05-03T14:44:42.600Z,5.18
2023-05-03T14:46:44.270Z,4.95
2023-05-03T14:48:45.680Z,4.88
2023-05-03T14:50:50.781Z,6.53
2023-05-03T14:52:52.241Z,10.43
2023-05-03T14:54:54.580Z,8.93
2023-05-03T14:56:56.158Z,7.13
2023-05-03T14:58:57.664Z,6.68
2023-05-03T15:00:59.489Z,4.07
2023-05-03T15:03:01.033Z,5.85
2023-05-03T15:05:03.956Z,5.43
2023-05-03T15:07:07.309Z,6.45
2023-05-03T15:09:11.265Z,6.95
2023-05-03T15:11:12.965Z,7.82
2023-05-03T15:13:15.294Z,7.53
2023-05-03T15:15:17.288Z,6.55
2023-05-03T15:17:19.013Z,12.85
2023-05-03T15:19:21.476Z,7.45
2023-05-03T15:21:23.784Z,4.28
2023-05-03T15:23:25.251Z,6.32
2023-05-03T15:25:27.112Z,5.28
2023-05-03T15:27:28.555Z,180.88
2023-05-03T15:29:30.282Z,10.77
2023-05-03T15:31:32.648Z,8.13
2023-05-03T15:33:43.891Z,7.18
2023-05-03T15:35:45.303Z,5.18
2023-05-03T15:37:46.857Z,6.15
2023-05-03T15:39:48.323Z,5.57
2023-05-03T15:41:49.790Z,8.45
2023-05-03T15:43:51.259Z,8.52
2023-05-03T15:45:52.707Z,8.90
2023-05-03T15:47:55.121Z,10.50
2023-05-03T15:49:57.740Z,5.72
2023-05-03T15:51:59.169Z,5.97
2023-05-03T15:54:01.560Z,7.15
2023-05-03T15:56:04.169Z,10.27
2023-05-03T15:58:07.533Z,13.20
2023-05-03T16:00:09.503Z,7.93
2023-05-03T16:02:11.213Z,4.63
2023-05-03T16:04:12.647Z,5.35
2023-05-03T16:06:16.822Z,7.05
2023-05-03T16:08:20.113Z,7.65
2023-05-03T16:10:24.223Z,12.50
2023-05-03T16:12:27.336Z,11.00
2023-05-03T16:14:28.828Z,9.43
2023-05-03T16:16:30.505Z,8.98
2023-05-03T16:18:32.708Z,5.95
2023-05-03T16:20:34.131Z,7.78
2023-05-03T16:22:35.536Z,6.18
2023-05-03T16:24:37.546Z,8.18
2023-05-03T16:26:38.955Z,7.30
2023-05-03T16:28:40.846Z,9.30
2023-05-03T16:30:42.627Z,5.13
2023-05-03T16:32:44.174Z,9.10
2023-05-03T16:34:45.820Z,7.30
2023-05-03T16:36:47.843Z,6.47
2023-05-03T16:38:49.307Z,8.80
2023-05-03T16:40:50.729Z,11.50
2023-05-03T16:42:52.205Z,9.27
2023-05-03T16:44:53.648Z,18.83
2023-05-03T16:46:55.251Z,20.90
2023-05-03T16:48:56.884Z,19.73
2023-05-03T16:51:01.355Z,15.63
2023-05-03T16:53:02.753Z,21.00
2023-05-03T16:55:04.330Z,13.93
2023-05-03T16:57:05.752Z,7.88
2023-05-03T16:59:07.263Z,7.93
2023-05-03T17:01:08.712Z,11.18
2023-05-03T17:03:10.199Z,12.10
2023-05-03T17:05:13.026Z,18.60
2023-05-03T17:07:14.483Z,17.30
2023-05-03T17:09:16.817Z,17.52
2023-05-03T17:11:18.195Z,15.48
2023-05-03T17:13:19.838Z,18.00
2023-05-03T17:15:21.404Z,13.82
2023-05-03T17:17:22.855Z,12.82
2023-05-03T17:19:24.272Z,15.38
2023-05-03T17:21:25.649Z,14.32
2023-05-03T17:23:27.544Z,13.13
2023-05-03T17:25:29.178Z,13.85
2023-05-03T17:27:30.594Z,14.10
2023-05-03T17:29:32.009Z,16.98
2023-05-03T17:31:33.776Z,17.95
2023-05-03T17:33:35.434Z,14.80
2023-05-03T17:35:36.888Z,13.30
2023-05-03T17:37:38.604Z,13.75
2023-05-03T17:39:40.081Z,15.23
2023-05-03T17:41:41.509Z,14.98
2023-05-03T17:43:43.224Z,20.83
2023-05-03T17:45:45.225Z,31.10
2023-05-03T17:47:47.126Z,29.90
2023-05-03T17:49:48.541Z,26.08
2023-05-03T17:51:49.944Z,13.43
2023-05-03T17:53:51.425Z,14.88
2023-05-03T17:55:53.766Z,10.35
2023-05-03T17:57:55.503Z,9.23
2023-05-03T17:59:56.924Z,9.90
2023-05-03T18:01:58.571Z,9.73
2023-05-03T18:04:00.146Z,9.70
2023-05-03T18:06:01.692Z,9.75
2023-05-03T18:08:03.803Z,14.18
2023-05-03T18:10:05.978Z,12.23
2023-05-03T18:12:07.557Z,18.98
2023-05-03T18:14:08.974Z,23.75
2023-05-03T18:16:10.745Z,18.08
2023-05-03T18:18:13.524Z,23.05
2023-05-03T18:20:15.088Z,23.08
2023-05-03T18:22:16.571Z,18.08
2023-05-03T18:24:18.262Z,25.20
2023-05-03T18:26:19.727Z,20.52
2023-05-03T18:28:22.679Z,26.63
2023-05-03T18:30:26.186Z,27.15
2023-05-03T18:32:27.743Z,137.88
2023-05-03T18:34:29.720Z,65.68
2023-05-03T18:36:31.430Z,52.50
2023-05-03T18:38:32.867Z,15.65
2023-05-03T18:40:34.244Z,12.52
2023-05-03T18:42:35.745Z,20.15
2023-05-03T18:44:39.657Z,28.67
2023-05-03T18:46:41.278Z,18.52
2023-05-03T18:48:42.958Z,31.00
2023-05-03T18:50:44.395Z,44.40
2023-05-03T18:52:45.841Z,18.55
2023-05-03T18:54:47.499Z,17.52
2023-05-03T18:56:48.930Z,16.08
2023-05-03T18:58:50.335Z,13.98
2023-05-03T19:00:51.786Z,18.38
2023-05-03T19:02:53.275Z,19.75
2023-05-03T19:04:55.289Z,17.42
2023-05-03T19:06:57.642Z,18.83
2023-05-03T19:08:59.139Z,16.25
2023-05-03T19:11:07.150Z,11.27
2023-05-03T19:13:08.735Z,13.10
2023-05-03T19:15:10.947Z,12.85
2023-05-03T19:17:12.356Z,8.60
2023-05-03T19:19:13.862Z,18.95
2023-05-03T19:21:19.329Z,12.35
2023-05-03T19:23:20.949Z,11.70
2023-05-03T19:25:22.390Z,16.40
2023-05-03T19:27:23.810Z,11.00
2023-05-03T19:29:25.676Z,14.02
2023-05-03T19:31:27.189Z,10.82
2023-05-03T19:33:28.673Z,14.55
2023-05-03T19:35:30.069Z,16.00
2023-05-03T19:37:31.491Z,37.22
2023-05-03T19:39:35.652Z,11.32
2023-05-03T19:41:37.974Z,14.88
2023-05-03T19:43:40.242Z,14.73
2023-05-03T19:45:41.898Z,24.00
2023-05-03T19:47:44.507Z,20.88
2023-05-03T19:49:46.648Z,22.38
2023-05-03T19:51:48.917Z,24.17
2023-05-03T19:53:50.330Z,21.92
2023-05-03T19:55:58.676Z,20.20
2023-05-03T19:58:00.263Z,16.90
2023-05-03T20:00:02.553Z,17.27
2023-05-03T20:02:04.120Z,13.30
2023-05-03T20:04:05.628Z,13.43
2023-05-03T20:06:07.092Z,15.82
2023-05-03T20:08:08.739Z,14.60
2023-05-03T20:10:10.330Z,196.32
2023-05-03T20:12:12.134Z,63.15
2023-05-03T20:14:13.588Z,71.15
2023-05-03T20:16:15.119Z,104.97
2023-05-03T20:18:16.646Z,102.60
2023-05-03T20:20:18.103Z,94.60
2023-05-03T20:22:19.559Z,63.40
2023-05-03T20:24:21.342Z,64.05
2023-05-03T20:26:22.795Z,94.20
2023-05-03T20:28:24.474Z,100.05
2023-05-03T20:30:25.968Z,120.70
2023-05-03T20:32:27.433Z,317.10
2023-05-03T20:34:29.534Z,352.38
2023-05-03T20:36:31.582Z,176.05
2023-05-03T20:38:33.323Z,86.18
2023-05-03T20:40:34.766Z,56.88
2023-05-03T20:42:36.368Z,50.28
2023-05-03T20:44:38.207Z,50.50
2023-05-03T20:46:40.434Z,59.85
2023-05-03T20:48:41.837Z,58.05
2023-05-03T20:50:43.631Z,52.38
2023-05-03T20:52:45.055Z,53.90
2023-05-03T20:54:46.584Z,51.97
2023-05-03T20:56:48.078Z,48.28
2023-05-03T20:58:49.849Z,54.63
2023-05-03T21:00:51.801Z,72.57
2023-05-03T21:02:54.669Z,68.05
2023-05-03T21:04:56.242Z,63.28
2023-05-03T21:06:57.640Z,61.90
2023-05-03T21:08:59.084Z,70.20
2023-05-03T21:11:00.581Z,73.85
2023-05-03T21:13:02.037Z,71.88
2023-05-03T21:15:03.702Z,70.85
2023-05-03T21:17:06.550Z,77.30
2023-05-03T21:19:08.075Z,79.72
2023-05-03T21:21:09.550Z,82.45
2023-05-03T21:23:11.030Z,63.70
2023-05-03T21:25:12.431Z,71.13
2023-05-03T21:27:13.891Z,67.35
2023-05-03T21:29:15.304Z,69.15
2023-05-03T21:31:16.898Z,53.65
2023-05-03T21:33:18.537Z,46.90
2023-05-03T21:35:20.690Z,57.60
2023-05-03T21:37:22.216Z,43.03
2023-05-03T21:39:23.676Z,39.63
2023-05-03T21:41:25.067Z,43.13
2023-05-03T21:43:26.464Z,41.00
2023-05-03T21:45:27.880Z,48.58
2023-05-03T21:47:29.832Z,45.13
2023-05-03T21:49:31.417Z,45.45
2023-05-03T21:51:32.985Z,47.72
2023-05-03T21:53:35.612Z,50.03
2023-05-03T21:55:37.053Z,53.15
2023-05-03T21:57:38.553Z,54.65
2023-05-03T21:59:40.028Z,57.38
2023-05-03T22:01:41.535Z,57.65
2023-05-03T22:03:43.066Z,70.20
2023-05-03T22:05:47.821Z,64.63
2023-05-03T22:07:49.351Z,65.35
2023-05-03T22:09:50.752Z,60.78
2023-05-03T22:11:52.333Z,69.28
2023-05-03T22:14:06.735Z,58.97
2023-05-03T22:16:11.581Z,65.82
2023-05-03T22:18:13.066Z,70.88
2023-05-03T22:20:14.528Z,64.60
2023-05-03T22:22:16.003Z,66.50
2023-05-03T22:24:17.625Z,48.50
2023-05-03T22:26:19.047Z,45.95
2023-05-03T22:28:20.615Z,40.55
2023-05-03T22:30:22.092Z,42.45
2023-05-03T22:32:23.771Z,44.35
2023-05-03T22:34:25.222Z,45.65
2023-05-03T22:36:26.690Z,63.83
2023-05-03T22:38:28.177Z,64.38
2023-05-03T22:40:29.603Z,62.67
2023-05-03T22:42:31.019Z,47.15
2023-05-03T22:44:32.502Z,50.95
2023-05-03T22:46:34.105Z,34.65
2023-05-03T22:48:35.518Z,32.67
2023-05-03T22:50:37.001Z,29.48
2023-05-03T22:52:38.390Z,35.72
2023-05-03T22:54:39.797Z,33.25
2023-05-03T22:56:41.229Z,39.88
2023-05-03T22:58:42.714Z,73.82
2023-05-03T23:00:44.276Z,89.28
2023-05-03T23:02:45.880Z,40.88
2023-05-03T23:04:47.538Z,47.30
2023-05-03T23:06:48.940Z,53.08
2023-05-03T23:08:50.533Z,59.67
2023-05-03T23:10:54.122Z,76.28
2023-05-03T23:12:55.571Z,51.15
2023-05-03T23:14:57.069Z,36.40
2023-05-03T23:16:58.543Z,50.97
2023-05-03T23:18:59.999Z,47.17
2023-05-03T23:21:01.414Z,57.25
2023-05-03T23:23:02.901Z,53.00
2023-05-03T23:25:05.051Z,55.60
2023-05-03T23:27:07.766Z,41.58
2023-05-03T23:29:09.633Z,39.03
2023-05-03T23:31:11.567Z,36.85
2023-05-03T23:33:13.633Z,31.92
2023-05-03T23:35:15.644Z,34.10
2023-05-03T23:37:17.097Z,47.03
2023-05-03T23:39:18.739Z,51.25
2023-05-03T23:41:20.318Z,48.95
2023-05-03T23:43:21.765Z,76.85
2023-05-03T23:45:23.494Z,55.40
2023-05-03T23:47:24.964Z,60.70
2023-05-03T23:49:26.503Z,80.32
2023-05-03T23:51:28.055Z,79.90
2023-05-03T23:53:29.462Z,68.03
2023-05-03T23:55:31.087Z,67.32
2023-05-03T23:57:32.470Z,64.55
2023-05-03T23:59:33.995Z,68.47
